Time;durP1;ratioP1;P1;durP2;ratioP2;P2;SDS_P1;SDS_P2;PMS_P1;PMS_P2;Temp;Humidity;BMP_temperature;BMP_pressure;BME280_temperature;BME280_humidity;BME280_pressure;Samples;Min_cycle;Max_cycle;Signal;HPM_P1;HPM_P2
2022/04/06 00:01:31;;;;;;;4.40;3.20;;;13.90;47.90;;;;;;4991395;28;20172;-35
2022/04/06 00:03:57;;;;;;;3.37;2.13;;;13.80;47.90;;;;;;4991285;28;20664;-35
2022/04/06 00:06:23;;;;;;;3.75;2.10;;;13.80;48.00;;;;;;4991440;28;20291;-35
2022/04/06 00:08:48;;;;;;;4.17;2.60;;;13.90;47.90;;;;;;4991278;28;20193;-35
2022/04/06 00:11:14;;;;;;;3.67;2.37;;;14.00;47.60;;;;;;4990928;28;20176;-35
2022/04/06 00:13:40;;;;;;;5.20;2.57;;;14.00;47.60;;;;;;4991281;28;20207;-35
2022/04/06 00:16:05;;;;;;;4.43;1.97;;;13.90;47.70;;;;;;4990414;28;20740;-35
2022/04/06 00:18:31;;;;;;;4.20;2.17;;;14.00;47.70;;;;;;4991057;28;20262;-35
2022/04/06 00:20:57;;;;;;;2.37;1.47;;;14.00;47.60;;;;;;4991175;28;20210;-35
2022/04/06 00:23:22;;;;;;;5.20;2.50;;;14.00;47.50;;;;;;4991309;28;20625;-35
2022/04/06 00:25:48;;;;;;;3.07;2.47;;;13.90;48.00;;;;;;4991150;28;20275;-35
2022/04/06 00:28:14;;;;;;;2.73;1.50;;;13.90;47.90;;;;;;4991059;28;20183;-35
2022/04/06 00:30:40;;;;;;;3.50;2.60;;;13.80;48.10;;;;;;4990806;28;20418;-35
2022/04/06 00:33:05;;;;;;;3.87;1.87;;;13.90;48.00;;;;;;4990881;28;20698;-35
2022/04/06 00:35:32;;;;;;;3.10;1.77;;;14.00;47.40;;;;;;4991014;28;20179;-35
2022/04/06 00:38:06;;;;;;;2.60;1.60;;;13.90;47.70;;;;;;4990976;28;20225;-35
2022/04/06 00:40:33;;;;;;;3.00;2.50;;;14.00;47.60;;;;;;4990505;28;20184;-35
2022/04/06 00:43:00;;;;;;;3.13;1.85;;;13.90;47.80;;;;;;4990660;28;20641;-35
2022/04/06 00:45:26;;;;;;;4.05;2.45;;;13.90;48.00;;;;;;4990498;28;20190;-35
2022/04/06 00:47:53;;;;;;;2.55;1.83;;;13.80;48.40;;;;;;4990689;28;20210;-35
2022/04/06 00:50:20;;;;;;;3.88;2.78;;;13.80;48.70;;;;;;4990204;28;20657;-35
2022/04/06 00:52:48;;;;;;;3.25;1.95;;;13.70;49.10;;;;;;4984786;28;20237;-35
2022/04/06 00:55:15;;;;;;;3.47;2.47;;;13.60;49.70;;;;;;5024579;28;20207;-35
2022/04/06 00:57:41;;;;;;;3.15;2.65;;;13.50;49.70;;;;;;4990509;28;20244;-35
2022/04/06 01:00:10;;;;;;;4.57;3.33;;;13.50;50.80;;;;;;4990412;28;20646;-36
2022/04/06 01:02:35;;;;;;;4.05;2.33;;;13.40;50.80;;;;;;4990499;28;20210;-35
2022/04/06 01:05:01;;;;;;;4.37;2.80;;;13.50;50.80;;;;;;4989156;28;20207;-35
2022/04/06 01:07:27;;;;;;;3.27;1.90;;;13.50;50.80;;;;;;4990307;28;20183;-35
2022/04/06 01:09:53;;;;;;;5.33;1.93;;;13.50;51.20;;;;;;4990528;28;20421;-35
2022/04/06 01:12:21;;;;;;;2.83;2.07;;;13.40;51.70;;;;;;4990105;28;20176;-36
2022/04/06 01:14:47;;;;;;;2.35;1.80;;;13.30;52.10;;;;;;4990202;28;20461;-35
2022/04/06 01:17:13;;;;;;;5.65;3.25;;;13.30;53.30;;;;;;4990420;28;20199;-35
2022/04/06 01:19:41;;;;;;;3.63;1.83;;;13.30;53.00;;;;;;4990064;28;20521;-35
2022/04/06 01:22:18;;;;;;;3.25;2.05;;;13.40;52.80;;;;;;4990168;28;20175;-35
2022/04/06 01:24:46;;;;;;;3.42;2.30;;;13.40;52.80;;;;;;4990129;28;20208;-35
2022/04/06 01:27:12;;;;;;;10.90;2.60;;;13.40;52.50;;;;;;4989456;28;20210;-35
2022/04/06 01:29:38;;;;;;;2.73;2.30;;;13.40;53.20;;;;;;4989676;28;20175;-35
2022/04/06 01:32:25;;;;;;;3.15;2.03;;;13.50;53.20;;;;;;4989672;28;20415;-35
2022/04/06 01:34:53;;;;;;;3.40;2.30;;;13.60;52.80;;;;;;4990162;28;20195;-35
2022/04/06 01:37:19;;;;;;;2.63;1.38;;;13.50;53.40;;;;;;4990010;28;20192;-35
2022/04/06 01:39:46;;;;;;;3.23;2.13;;;13.50;53.50;;;;;;4990009;28;20177;-35
2022/04/06 01:42:15;;;;;;;3.70;2.50;;;13.40;53.60;;;;;;4989644;28;20415;-35
2022/04/06 01:44:44;;;;;;;4.82;3.05;;;13.30;54.30;;;;;;4989807;28;20734;-35
2022/04/06 01:47:10;;;;;;;4.85;3.50;;;13.30;54.60;;;;;;4989662;28;20221;-35
2022/04/06 01:52:21;;;;;;;4.45;2.33;;;13.50;53.70;;;;;;4989878;28;20587;-35
2022/04/06 01:54:55;;;;;;;3.10;2.30;;;13.60;53.50;;;;;;4989859;28;20203;-35
2022/04/06 01:57:21;;;;;;;4.30;3.25;;;13.60;53.00;;;;;;4989879;28;20502;-35
2022/04/06 01:59:47;;;;;;;4.68;3.17;;;13.60;52.70;;;;;;4989961;28;20179;-35
2022/04/06 02:02:16;;;;;;;3.65;2.42;;;13.60;53.00;;;;;;4989543;28;20199;-35
2022/04/06 02:04:42;;;;;;;2.63;2.13;;;13.60;53.20;;;;;;4989841;28;20193;-35
2022/04/06 02:07:13;;;;;;;5.33;2.87;;;13.60;52.70;;;;;;4989536;28;20282;-35
2022/04/06 02:09:39;;;;;;;3.10;2.53;;;13.60;53.00;;;;;;4989472;28;20411;-35
2022/04/06 02:12:10;;;;;;;6.45;4.22;;;13.60;53.00;;;;;;4989253;28;20851;-35
2022/04/06 02:14:37;;;;;;;5.05;4.15;;;13.60;52.80;;;;;;4989685;28;20207;-35
2022/04/06 02:17:04;;;;;;;5.35;2.40;;;13.60;53.40;;;;;;4988376;28;20214;-35
2022/04/06 02:19:31;;;;;;;5.00;3.08;;;13.60;53.00;;;;;;5021241;28;20190;-35
2022/04/06 02:21:56;;;;;;;6.28;2.92;;;13.60;53.00;;;;;;4989397;28;20172;-35
2022/04/06 02:24:22;;;;;;;6.07;3.27;;;13.60;53.40;;;;;;4989157;28;20190;-34
2022/04/06 02:26:48;;;;;;;4.27;3.57;;;13.60;53.40;;;;;;4989415;28;20202;-34
2022/04/06 02:29:15;;;;;;;3.73;2.30;;;13.60;53.40;;;;;;4989313;28;20198;-35
2022/04/06 02:31:41;;;;;;;6.40;3.60;;;13.50;53.30;;;;;;4989056;28;20182;-35
2022/04/06 02:34:07;;;;;;;5.40;2.57;;;13.60;53.10;;;;;;4989190;28;20203;-35
2022/04/06 02:36:32;;;;;;;4.00;2.80;;;13.60;53.10;;;;;;4989126;28;20430;-35
2022/04/06 02:39:00;;;;;;;5.03;3.40;;;13.50;53.30;;;;;;4989988;28;20179;-35
2022/04/06 02:41:25;;;;;;;5.13;3.10;;;13.50;53.60;;;;;;4992291;28;20250;-35
2022/04/06 02:43:51;;;;;;;4.73;3.70;;;13.50;53.40;;;;;;4992587;28;20250;-35
2022/04/06 02:46:17;;;;;;;4.87;3.60;;;13.60;53.30;;;;;;4992438;28;20503;-35
2022/04/06 02:48:42;;;;;;;11.30;4.60;;;13.60;53.30;;;;;;4992503;28;20676;-35
2022/04/06 02:51:08;;;;;;;4.70;3.80;;;13.70;53.10;;;;;;4992431;28;20179;-35
2022/04/06 02:53:34;;;;;;;4.57;3.27;;;13.60;52.90;;;;;;4992114;28;20264;-35
2022/04/06 02:56:00;;;;;;;4.67;2.63;;;13.50;53.40;;;;;;4992248;28;20203;-35
2022/04/06 02:58:25;;;;;;;6.20;3.30;;;13.60;53.40;;;;;;4992324;28;20175;-35
2022/04/06 03:00:51;;;;;;;3.90;2.87;;;13.60;53.30;;;;;;4992029;28;20214;-34
2022/04/06 03:03:17;;;;;;;5.00;3.60;;;13.60;53.40;;;;;;4992323;28;20221;-35
2022/04/06 03:05:42;;;;;;;10.80;3.17;;;13.60;53.00;;;;;;4992141;28;20203;-34
2022/04/06 03:08:08;;;;;;;3.97;2.20;;;13.60;53.00;;;;;;4992086;28;20618;-35
2022/04/06 03:10:34;;;;;;;4.53;2.93;;;13.60;52.60;;;;;;4992184;28;20647;-35
2022/04/06 03:13:00;;;;;;;6.27;3.47;;;13.60;52.60;;;;;;4992066;28;20411;-35
2022/04/06 03:15:26;;;;;;;6.27;3.37;;;13.60;52.50;;;;;;4991854;28;20203;-35
2022/04/06 03:17:51;;;;;;;3.43;3.13;;;13.60;52.90;;;;;;4992116;28;20403;-34
2022/04/06 03:20:17;;;;;;;6.40;3.37;;;13.60;53.00;;;;;;4991858;28;20908;-35
2022/04/06 03:22:43;;;;;;;4.10;2.70;;;13.60;52.60;;;;;;4991706;28;20533;-34
2022/04/06 03:25:10;;;;;;;7.20;4.47;;;13.70;52.60;;;;;;4992077;28;20228;-34
2022/04/06 03:27:36;;;;;;;4.57;3.03;;;13.70;52.90;;;;;;4991725;28;20290;-34
2022/04/06 03:30:05;;;;;;;5.65;3.58;;;13.60;53.40;;;;;;4991921;28;20183;-35
2022/04/06 03:32:31;;;;;;;4.72;3.95;;;13.60;53.00;;;;;;4991834;28;20183;-34
2022/04/06 03:34:57;;;;;;;3.73;2.00;;;13.50;53.00;;;;;;4991958;28;20233;-35
2022/04/06 03:37:24;;;;;;;4.20;2.47;;;13.60;52.80;;;;;;4991545;28;20429;-35
2022/04/06 03:39:49;;;;;;;7.88;4.05;;;13.70;52.50;;;;;;4991896;28;20175;-34
2022/04/06 03:42:15;;;;;;;5.57;2.87;;;13.70;52.30;;;;;;4991465;28;20167;-35
2022/04/06 03:44:41;;;;;;;5.93;3.07;;;13.70;52.20;;;;;;4991634;28;20187;-34
2022/04/06 03:47:07;;;;;;;5.03;2.63;;;13.70;52.00;;;;;;4991417;28;20214;-34
2022/04/06 03:49:32;;;;;;;4.13;3.30;;;13.80;51.60;;;;;;4991419;28;20916;-35
2022/04/06 03:51:58;;;;;;;5.20;2.60;;;13.80;51.60;;;;;;4990526;28;20180;-34
2022/04/06 03:54:24;;;;;;;7.30;4.30;;;13.80;51.30;;;;;;4991635;28;20684;-34
2022/04/06 03:56:49;;;;;;;3.60;2.60;;;14.00;51.10;;;;;;4991608;28;20352;-34
2022/04/06 03:59:15;;;;;;;5.13;3.70;;;13.90;50.90;;;;;;4991451;28;20213;-34
2022/04/06 04:01:41;;;;;;;5.30;2.80;;;14.00;50.80;;;;;;4991141;28;20198;-34
2022/04/06 04:04:07;;;;;;;3.70;2.70;;;14.00;50.70;;;;;;4991283;28;20250;-35
2022/04/06 04:06:32;;;;;;;5.53;3.63;;;14.00;50.60;;;;;;4991152;28;20192;-35
2022/04/06 04:08:58;;;;;;;6.30;3.27;;;13.90;50.80;;;;;;4991283;28;20224;-35
2022/04/06 04:11:24;;;;;;;7.97;2.83;;;13.80;50.90;;;;;;4990965;28;20172;-35
2022/04/06 04:13:49;;;;;;;3.30;2.43;;;13.80;50.90;;;;;;4991333;28;20979;-34
2022/04/06 04:16:15;;;;;;;4.73;2.80;;;13.80;50.80;;;;;;4991006;28;20194;-35
2022/04/06 04:18:42;;;;;;;6.57;3.15;;;13.90;50.70;;;;;;4990955;28;20644;-34
2022/04/06 04:23:52;;;;;;;8.27;3.17;;;13.70;50.80;;;;;;4991282;28;20221;-35
2022/04/06 04:26:17;;;;;;;6.53;3.30;;;13.70;50.90;;;;;;4990836;28;20669;-35
2022/04/06 04:28:43;;;;;;;3.50;2.60;;;13.70;50.80;;;;;;4991208;28;20176;-35
2022/04/06 04:31:09;;;;;;;7.63;3.03;;;13.70;51.00;;;;;;4990571;28;20414;-34
2022/04/06 04:33:34;;;;;;;4.10;3.40;;;13.80;50.80;;;;;;4990735;28;20196;-35
2022/04/06 04:36:00;;;;;;;4.37;2.37;;;13.80;50.40;;;;;;4989511;28;20266;-35
2022/04/06 04:38:26;;;;;;;4.57;2.63;;;13.80;50.20;;;;;;4990904;28;20176;-35
2022/04/06 04:40:52;;;;;;;4.67;2.87;;;13.80;50.10;;;;;;4990693;28;20786;-35
2022/04/06 04:43:17;;;;;;;5.43;3.00;;;13.80;49.90;;;;;;4990949;28;20179;-35
2022/04/06 04:45:43;;;;;;;4.20;2.53;;;13.70;50.60;;;;;;4990634;28;20218;-35
2022/04/06 04:48:09;;;;;;;6.90;4.10;;;13.80;50.50;;;;;;4990690;28;20502;-35
2022/04/06 04:50:35;;;;;;;4.17;2.50;;;13.70;50.30;;;;;;4990240;28;20171;-35
2022/04/06 04:53:00;;;;;;;3.63;2.50;;;13.80;50.40;;;;;;4990503;28;20414;-35
2022/04/06 04:55:26;;;;;;;5.90;3.10;;;13.80;50.00;;;;;;4990347;28;20192;-35
2022/04/06 04:57:52;;;;;;;6.90;4.30;;;13.80;50.00;;;;;;4990531;28;20175;-35
2022/04/06 05:00:17;;;;;;;4.43;3.30;;;13.80;50.30;;;;;;4990274;28;20175;-35
2022/04/06 05:02:43;;;;;;;4.97;2.83;;;13.80;50.10;;;;;;4990116;28;20171;-35
2022/04/06 05:05:11;;;;;;;5.00;3.10;;;13.80;49.60;;;;;;4990501;28;20171;-35
2022/04/06 05:07:38;;;;;;;3.28;2.10;;;13.80;49.20;;;;;;4990194;28;20623;-35
2022/04/06 05:10:08;;;;;;;3.80;2.75;;;13.80;49.80;;;;;;4990363;28;20184;-35
2022/04/06 05:12:34;;;;;;;6.00;2.88;;;13.80;49.20;;;;;;4990061;28;20175;-36
2022/04/06 05:15:00;;;;;;;3.70;2.72;;;13.90;49.20;;;;;;4990099;28;20213;-36
2022/04/06 05:17:26;;;;;;;5.10;2.77;;;13.90;49.00;;;;;;4996121;28;20196;-35
2022/04/06 05:19:53;;;;;;;4.57;3.15;;;13.90;48.90;;;;;;5009337;28;20411;-35
2022/04/06 05:22:18;;;;;;;5.45;3.50;;;14.00;49.00;;;;;;4989930;28;20198;-36
2022/04/06 05:24:44;;;;;;;4.73;3.10;;;13.80;49.30;;;;;;4990153;28;20648;-36
2022/04/06 05:27:10;;;;;;;5.60;2.60;;;13.80;49.40;;;;;;4989826;28;20203;-35
2022/04/06 05:29:36;;;;;;;4.35;3.05;;;13.90;49.20;;;;;;4989939;28;20187;-35
2022/04/06 05:32:02;;;;;;;6.07;3.20;;;13.90;49.00;;;;;;4989976;28;20179;-36
2022/04/06 05:34:28;;;;;;;4.93;3.00;;;14.00;49.00;;;;;;4989737;28;20207;-35
2022/04/06 05:36:54;;;;;;;4.67;3.50;;;14.10;48.80;;;;;;4989719;28;20222;-36
2022/04/06 05:39:20;;;;;;;4.63;2.78;;;14.10;48.70;;;;;;4990120;28;20402;-35
2022/04/06 05:41:46;;;;;;;4.10;2.50;;;14.20;48.30;;;;;;4989670;28;20172;-35
2022/04/06 05:44:11;;;;;;;5.97;4.20;;;14.10;48.50;;;;;;4989734;28;20183;-36
2022/04/06 05:46:37;;;;;;;5.50;2.53;;;14.10;48.30;;;;;;4989406;28;20213;-35
2022/04/06 05:49:03;;;;;;;5.00;2.77;;;14.20;48.40;;;;;;4989914;28;20211;-35
2022/04/06 05:51:28;;;;;;;3.37;2.17;;;14.30;48.00;;;;;;4989329;28;20207;-35
2022/04/06 05:53:54;;;;;;;2.90;1.97;;;14.30;47.60;;;;;;4989876;28;20207;-35
2022/04/06 05:56:20;;;;;;;4.50;2.80;;;14.40;47.40;;;;;;4989542;28;20589;-35
2022/04/06 05:58:45;;;;;;;7.00;3.27;;;14.20;47.00;;;;;;4989518;28;20541;-35
2022/04/06 06:01:11;;;;;;;2.67;1.67;;;14.20;47.40;;;;;;4989762;28;20270;-35
2022/04/06 06:03:37;;;;;;;4.07;2.87;;;14.20;47.40;;;;;;4989886;28;20179;-35
2022/04/06 06:06:03;;;;;;;3.87;2.23;;;14.20;47.20;;;;;;4989473;28;20244;-35
2022/04/06 06:08:28;;;;;;;6.60;4.40;;;14.10;47.50;;;;;;4989587;28;20573;-35
2022/04/06 06:10:55;;;;;;;3.53;2.67;;;14.10;47.20;;;;;;4989304;28;20459;-35
2022/04/06 06:13:22;;;;;;;5.28;3.15;;;13.80;48.10;;;;;;4989515;28;20191;-35
2022/04/06 06:15:49;;;;;;;3.72;2.42;;;13.80;48.90;;;;;;4992724;28;20199;-35
2022/04/06 06:18:15;;;;;;;3.08;2.22;;;13.80;49.40;;;;;;4992791;28;20171;-35
2022/04/06 06:20:41;;;;;;;4.40;2.40;;;13.90;50.00;;;;;;4992683;28;20194;-35
2022/04/06 06:23:07;;;;;;;3.45;2.60;;;13.70;51.10;;;;;;4992855;28;20179;-35
2022/04/06 06:25:33;;;;;;;4.10;2.20;;;13.70;51.50;;;;;;4992849;28;20179;-35
2022/04/06 06:27:58;;;;;;;6.10;3.53;;;13.70;51.80;;;;;;4992930;28;20668;-35
2022/04/06 06:30:27;;;;;;;4.60;2.70;;;13.70;51.70;;;;;;4992798;28;20667;-35
2022/04/06 06:32:53;;;;;;;5.05;1.83;;;13.60;51.90;;;;;;4992772;28;20210;-35
2022/04/06 06:35:20;;;;;;;4.10;2.70;;;13.60;52.10;;;;;;4992399;28;20211;-35
2022/04/06 06:37:50;;;;;;;4.55;2.47;;;13.40;52.30;;;;;;4992848;28;20263;-35
2022/04/06 06:40:21;;;;;;;3.42;2.15;;;13.40;53.10;;;;;;4992405;28;20175;-35
2022/04/06 06:42:47;;;;;;;2.97;1.92;;;13.40;52.80;;;;;;4992667;28;20186;-35
2022/04/06 06:45:13;;;;;;;5.25;3.28;;;13.40;53.10;;;;;;4992754;28;20176;-35
2022/04/06 06:47:42;;;;;;;3.35;2.33;;;13.40;53.00;;;;;;4992265;28;20218;-35
2022/04/06 06:50:09;;;;;;;5.40;2.08;;;13.40;53.20;;;;;;4992451;28;20183;-35
2022/04/06 06:52:35;;;;;;;4.30;2.38;;;13.40;53.10;;;;;;4992161;28;20755;-35
2022/04/06 06:55:05;;;;;;;4.27;2.40;;;13.50;53.30;;;;;;4992246;28;20298;-36
2022/04/06 06:57:31;;;;;;;3.50;2.65;;;13.50;53.20;;;;;;4992218;28;20938;-35
2022/04/06 06:59:58;;;;;;;2.97;1.20;;;13.60;52.80;;;;;;4992566;28;20184;-35
2022/04/06 07:02:23;;;;;;;2.92;1.90;;;13.70;52.60;;;;;;4992116;28;20609;-35
2022/04/06 07:04:49;;;;;;;2.73;2.00;;;13.80;52.30;;;;;;4992240;28;20219;-35
2022/04/06 07:07:15;;;;;;;6.57;2.57;;;13.90;52.10;;;;;;4992331;28;20487;-36
2022/04/06 07:09:41;;;;;;;6.85;2.88;;;14.00;52.10;;;;;;4992048;28;20414;-35
2022/04/06 07:12:07;;;;;;;3.50;1.90;;;14.10;52.10;;;;;;4992178;28;20185;-36
2022/04/06 07:14:33;;;;;;;3.05;2.10;;;14.20;51.70;;;;;;4992331;28;20210;-36
2022/04/06 07:17:00;;;;;;;3.20;2.20;;;14.20;51.80;;;;;;4992134;28;20195;-35
2022/04/06 07:19:26;;;;;;;9.43;2.00;;;14.40;51.60;;;;;;4991903;28;20417;-36
2022/04/06 07:21:51;;;;;;;4.53;2.03;;;14.50;51.60;;;;;;4991729;28;20175;-35
2022/04/06 07:24:17;;;;;;;6.50;2.77;;;14.60;51.30;;;;;;4991824;28;20484;-35
2022/04/06 07:26:44;;;;;;;4.47;2.40;;;14.70;51.10;;;;;;4990617;28;20438;-35
2022/04/06 07:29:11;;;;;;;4.13;2.92;;;14.80;51.10;;;;;;4991900;28;20471;-36
2022/04/06 07:31:41;;;;;;;6.15;3.00;;;15.00;51.00;;;;;;4991493;28;20722;-36
2022/04/06 07:34:07;;;;;;;6.05;3.22;;;15.10;51.30;;;;;;4991912;28;20274;-36
2022/04/06 07:36:33;;;;;;;5.13;2.80;;;15.20;50.50;;;;;;4991634;28;20626;-35
2022/04/06 07:39:04;;;;;;;5.53;3.13;;;15.20;49.50;;;;;;4991636;28;20274;-36
2022/04/06 07:41:30;;;;;;;4.05;2.60;;;15.30;50.00;;;;;;4991553;28;20186;-36
2022/04/06 07:43:56;;;;;;;4.82;3.28;;;15.30;49.90;;;;;;4991917;28;20186;-36
2022/04/06 07:46:22;;;;;;;3.80;2.70;;;15.40;49.60;;;;;;4991517;28;20207;-36
2022/04/06 07:48:48;;;;;;;3.70;2.63;;;15.30;49.60;;;;;;4991591;28;20525;-36
2022/04/06 07:51:13;;;;;;;6.40;3.50;;;15.40;49.00;;;;;;4988270;28;20427;-35
2022/04/06 07:53:39;;;;;;;3.90;2.90;;;15.40;49.10;;;;;;5025633;28;20450;-36
2022/04/06 07:56:06;;;;;;;5.90;3.67;;;15.30;47.10;;;;;;4991331;28;20497;-36
2022/04/06 07:58:33;;;;;;;3.47;1.80;;;15.10;47.70;;;;;;4991273;28;20571;-36
2022/04/06 08:00:59;;;;;;;5.15;2.22;;;15.10;45.70;;;;;;4991071;28;20171;-36
2022/04/06 08:03:24;;;;;;;4.37;2.63;;;15.10;46.70;;;;;;4991545;28;20182;-36
2022/04/06 08:05:50;;;;;;;3.30;2.10;;;15.10;46.00;;;;;;4991048;28;20426;-36
2022/04/06 08:08:16;;;;;;;3.00;2.42;;;15.10;43.80;;;;;;4991144;28;20179;-36
2022/04/06 08:10:42;;;;;;;2.93;2.23;;;14.90;43.60;;;;;;4990969;28;20180;-36
2022/04/06 08:13:08;;;;;;;4.40;2.70;;;15.00;45.20;;;;;;4991331;28;20415;-36
2022/04/06 08:15:33;;;;;;;4.13;1.70;;;15.10;43.70;;;;;;4991005;28;20564;-36
2022/04/06 08:17:59;;;;;;;4.67;2.40;;;15.10;42.60;;;;;;4991029;28;20189;-36
2022/04/06 08:20:26;;;;;;;2.10;1.53;;;15.10;44.40;;;;;;4991096;28;20175;-36
2022/04/06 08:22:52;;;;;;;4.13;2.40;;;15.20;43.40;;;;;;4991221;28;20171;-36
2022/04/06 08:25:18;;;;;;;3.47;2.23;;;15.30;43.90;;;;;;4991199;28;20179;-35
2022/04/06 08:27:44;;;;;;;2.72;1.52;;;15.30;42.90;;;;;;4990967;28;20179;-36
2022/04/06 08:30:12;;;;;;;4.17;2.90;;;15.30;42.20;;;;;;4991134;28;20190;-36
2022/04/06 08:32:38;;;;;;;2.22;1.60;;;15.50;42.30;;;;;;4990673;28;20502;-36
2022/04/06 08:35:05;;;;;;;3.78;1.85;;;15.50;42.40;;;;;;4990979;28;20285;-36
2022/04/06 08:37:32;;;;;;;5.78;2.03;;;15.70;42.40;;;;;;4990591;28;20191;-36
2022/04/06 08:39:59;;;;;;;4.75;2.13;;;15.80;41.50;;;;;;4990996;28;20183;-36
2022/04/06 08:42:31;;;;;;;5.03;2.28;;;15.90;41.60;;;;;;4990439;28;20648;-36
2022/04/06 08:44:57;;;;;;;2.97;1.48;;;15.90;38.60;;;;;;4990788;28;20180;-36
2022/04/06 08:47:23;;;;;;;3.43;2.30;;;16.00;41.10;;;;;;4990423;28;20207;-36
2022/04/06 08:49:49;;;;;;;5.27;2.87;;;16.10;39.80;;;;;;4990702;28;20625;-35
2022/04/06 08:52:17;;;;;;;4.25;2.53;;;16.30;40.80;;;;;;4990304;28;20485;-35
2022/04/06 08:54:43;;;;;;;3.17;2.00;;;16.40;38.40;;;;;;4990765;28;20218;-35
2022/04/06 08:57:10;;;;;;;3.15;1.80;;;16.40;39.10;;;;;;4990609;28;20195;-35
2022/04/06 08:59:35;;;;;;;3.00;2.08;;;16.40;39.20;;;;;;4990530;28;20178;-36
2022/04/06 09:02:01;;;;;;;4.50;3.10;;;16.60;38.90;;;;;;4990435;28;20175;-36
2022/04/06 09:04:31;;;;;;;6.90;2.50;;;16.60;38.70;;;;;;4990622;28;20179;-36
2022/04/06 09:07:07;;;;;;;3.95;1.63;;;16.70;38.50;;;;;;4990622;28;20199;-35
2022/04/06 09:09:35;;;;;;;3.03;1.95;;;16.70;37.70;;;;;;4990275;28;20556;-36
2022/04/06 09:12:08;;;;;;;3.70;2.28;;;16.60;37.60;;;;;;4990002;28;20836;-36
2022/04/06 09:14:35;;;;;;;4.32;2.83;;;16.50;37.10;;;;;;4990012;28;20611;-35
2022/04/06 09:17:06;;;;;;;3.50;2.33;;;16.40;38.10;;;;;;4990367;28;20206;-36
2022/04/06 09:19:35;;;;;;;2.72;1.90;;;16.30;36.90;;;;;;4990530;28;20173;-35
2022/04/06 09:22:04;;;;;;;4.80;2.22;;;16.20;38.60;;;;;;4989895;28;20175;-35
2022/04/06 09:24:30;;;;;;;5.60;2.33;;;16.10;38.00;;;;;;4990201;28;20192;-35
2022/04/06 09:26:59;;;;;;;5.35;2.75;;;16.00;38.40;;;;;;4990214;28;20230;-35
2022/04/06 09:29:25;;;;;;;2.60;1.65;;;16.00;39.30;;;;;;4989994;28;20638;-35
2022/04/06 09:31:52;;;;;;;3.00;1.67;;;15.80;39.30;;;;;;4990069;28;20275;-35
2022/04/06 09:34:27;;;;;;;3.05;2.08;;;15.70;40.20;;;;;;4990184;28;20207;-35
2022/04/06 09:37:02;;;;;;;3.65;2.22;;;15.60;40.40;;;;;;4983894;28;20279;-35
2022/04/06 09:39:46;;;;;;;2.90;2.25;;;15.70;40.90;;;;;;5037924;28;20179;-35
2022/04/06 09:42:23;;;;;;;2.63;1.83;;;16.00;40.70;;;;;;5071946;28;20182;-35
2022/04/06 09:47:51;;;;;;;3.83;2.90;;;16.40;39.70;;;;;;5072001;28;20230;-35
2022/04/06 09:50:20;;;;;;;2.30;1.70;;;16.50;40.20;;;;;;5071380;28;20172;-36
2022/04/06 09:52:47;;;;;;;4.03;2.00;;;16.70;40.70;;;;;;5071995;28;20184;-35
2022/04/06 09:55:15;;;;;;;2.88;2.50;;;17.00;40.80;;;;;;5071773;28;20192;-36
2022/04/06 09:57:42;;;;;;;3.00;2.05;;;17.30;38.80;;;;;;5071977;28;20200;-36
2022/04/06 10:00:20;;;;;;;4.30;3.13;;;17.40;37.40;;;;;;5026919;28;20186;-36
2022/04/06 10:02:48;;;;;;;3.60;2.20;;;17.50;37.30;;;;;;5012500;28;20171;-36
2022/04/06 10:05:17;;;;;;;3.50;2.17;;;17.60;37.00;;;;;;4989857;28;20180;-36
2022/04/06 10:07:43;;;;;;;4.20;1.83;;;17.70;36.30;;;;;;4989419;28;20206;-36
2022/04/06 10:10:12;;;;;;;2.70;1.97;;;17.60;35.60;;;;;;4989417;28;20180;-35
2022/04/06 10:12:39;;;;;;;2.63;1.70;;;17.40;35.00;;;;;;4989287;28;20414;-36
2022/04/06 10:15:06;;;;;;;3.95;2.55;;;17.30;34.70;;;;;;4989334;28;20293;-35
2022/04/06 10:17:33;;;;;;;2.72;1.85;;;17.30;35.90;;;;;;4989551;28;20192;-36
2022/04/06 10:20:20;;;;;;;3.00;2.25;;;17.50;36.70;;;;;;4989305;28;20179;-36
2022/04/06 10:22:57;;;;;;;3.53;1.73;;;17.40;34.00;;;;;;4989357;28;20176;-36
2022/04/06 10:25:34;;;;;;;3.20;1.75;;;17.40;33.40;;;;;;4989494;28;20171;-35
2022/04/06 10:28:06;;;;;;;2.45;1.83;;;17.20;33.10;;;;;;4989550;28;20262;-36
2022/04/06 10:30:32;;;;;;;11.55;1.83;;;17.30;34.60;;;;;;4989264;28;20179;-36
2022/04/06 10:32:57;;;;;;;5.23;2.20;;;17.70;34.60;;;;;;4989652;28;20179;-36
2022/04/06 10:35:27;;;;;;;3.00;1.83;;;18.20;34.30;;;;;;4989191;28;20507;-36
2022/04/06 10:37:56;;;;;;;3.70;1.67;;;18.50;32.50;;;;;;4989450;28;20182;-36
2022/04/06 10:40:22;;;;;;;3.03;1.88;;;18.80;31.00;;;;;;4989283;28;20180;-36
2022/04/06 10:42:49;;;;;;;3.35;2.15;;;19.00;31.30;;;;;;4989335;28;20167;-36
2022/04/06 10:45:27;;;;;;;3.30;2.03;;;19.20;30.30;;;;;;4989127;28;20214;-36
2022/04/06 10:48:20;;;;;;;2.88;1.90;;;19.30;29.70;;;;;;4989414;28;20265;-36
2022/04/06 10:50:50;;;;;;;2.13;1.42;;;19.30;30.90;;;;;;4989090;28;20252;-36
2022/04/06 10:53:18;;;;;;;2.97;2.03;;;19.40;30.50;;;;;;4989209;28;20237;-36
2022/04/06 10:56:02;;;;;;;3.70;2.33;;;19.30;29.50;;;;;;4988968;28;20234;-36
2022/04/06 10:58:48;;;;;;;4.00;2.00;;;19.30;28.60;;;;;;4989006;28;20175;-35
2022/04/06 11:01:16;;;;;;;4.95;2.47;;;19.20;29.60;;;;;;4989923;28;20187;-35
2022/04/06 11:03:55;;;;;;;4.78;2.00;;;19.40;29.30;;;;;;5017025;28;20176;-36
2022/04/06 11:06:49;;;;;;;3.42;2.25;;;19.50;29.20;;;;;;4992231;28;20294;-36
2022/04/06 11:12:30;;;;;;;2.95;2.08;;;19.20;28.60;;;;;;5020441;28;20175;-36
2022/04/06 11:14:58;;;;;;;3.60;2.17;;;18.90;28.30;;;;;;4991952;28;20594;-36
2022/04/06 11:17:30;;;;;;;7.72;2.72;;;18.80;29.70;;;;;;4991839;28;20230;-36
2022/04/06 11:19:56;;;;;;;3.67;1.90;;;18.70;29.20;;;;;;4992168;28;20176;-36
2022/04/06 11:22:22;;;;;;;5.53;2.50;;;18.60;29.60;;;;;;4991787;28;20514;-36
2022/04/06 11:24:48;;;;;;;2.60;1.73;;;18.50;29.00;;;;;;4992187;28;20422;-35
2022/04/06 11:27:32;;;;;;;3.00;2.47;;;18.40;29.70;;;;;;4991991;28;20226;-35
2022/04/06 11:30:04;;;;;;;4.25;2.47;;;18.70;29.90;;;;;;4991809;28;20549;-36
2022/04/06 11:32:30;;;;;;;2.90;2.25;;;18.80;29.10;;;;;;4991817;28;20533;-36
2022/04/06 11:35:08;;;;;;;2.95;1.45;;;18.90;29.60;;;;;;4991553;28;20278;-36
2022/04/06 11:37:48;;;;;;;2.22;1.95;;;19.00;29.10;;;;;;4991800;28;20316;-36
2022/04/06 11:40:18;;;;;;;3.20;2.05;;;18.90;29.40;;;;;;4991865;28;20164;-36
2022/04/06 11:42:55;;;;;;;4.05;2.38;;;18.80;30.70;;;;;;4991667;28;20187;-36
2022/04/06 11:45:24;;;;;;;2.65;2.00;;;18.90;29.70;;;;;;4991591;28;20252;-36
2022/04/06 11:47:55;;;;;;;6.45;2.58;;;19.00;30.30;;;;;;4991768;28;20526;-36
2022/04/06 11:50:22;;;;;;;3.30;2.13;;;18.90;30.40;;;;;;4991509;28;20179;-36
2022/04/06 11:52:49;;;;;;;4.35;2.17;;;18.80;30.00;;;;;;4991430;28;20233;-36
2022/04/06 11:55:14;;;;;;;2.15;1.63;;;18.90;31.50;;;;;;4991623;28;20210;-36
2022/04/06 11:57:45;;;;;;;7.93;2.00;;;19.40;31.50;;;;;;4991238;28;20199;-36
2022/04/06 12:00:13;;;;;;;4.80;2.05;;;19.50;30.10;;;;;;4991435;28;20179;-36
2022/04/06 12:02:56;;;;;;;3.88;2.40;;;19.60;29.80;;;;;;4991065;28;20271;-36
2022/04/06 12:05:23;;;;;;;5.55;2.38;;;19.40;29.60;;;;;;4991268;28;20536;-36
2022/04/06 12:08:06;;;;;;;4.53;2.58;;;19.40;29.90;;;;;;4991310;28;20202;-36
2022/04/06 12:10:33;;;;;;;2.80;2.20;;;19.50;30.00;;;;;;4991304;28;20164;-36
2022/04/06 12:12:59;;;;;;;4.20;2.55;;;19.50;30.10;;;;;;4990682;28;20596;-36
2022/04/06 12:15:24;;;;;;;3.40;2.25;;;19.40;29.00;;;;;;4991193;28;20214;-36
2022/04/06 12:17:50;;;;;;;3.40;2.50;;;19.40;30.00;;;;;;4991272;28;20653;-36
2022/04/06 12:20:26;;;;;;;3.40;2.30;;;19.50;30.10;;;;;;4990988;28;20178;-36
2022/04/06 12:23:00;;;;;;;5.93;2.75;;;19.40;29.60;;;;;;4991047;28;20183;-36
2022/04/06 12:25:33;;;;;;;3.25;2.35;;;19.20;30.20;;;;;;4990995;28;20180;-36
2022/04/06 12:28:18;;;;;;;4.18;2.45;;;19.10;30.40;;;;;;4990975;28;20514;-36
2022/04/06 12:31:01;;;;;;;4.43;2.95;;;19.20;30.90;;;;;;4990934;28;20240;-36
2022/04/06 12:33:41;;;;;;;4.18;2.30;;;19.20;31.40;;;;;;4990885;28;20175;-36
2022/04/06 12:36:17;;;;;;;3.92;2.88;;;19.10;30.00;;;;;;4990826;28;20249;-36
2022/04/06 12:38:55;;;;;;;2.80;2.35;;;19.10;31.60;;;;;;4990677;28;20587;-36
2022/04/06 12:41:23;;;;;;;3.60;2.70;;;19.20;31.40;;;;;;4990753;28;20160;-36
2022/04/06 12:43:49;;;;;;;2.90;2.42;;;19.40;30.90;;;;;;4990794;28;20187;-36
2022/04/06 12:46:37;;;;;;;3.27;2.27;;;19.40;30.20;;;;;;4990643;28;20263;-36
2022/04/06 12:49:32;;;;;;;2.85;2.53;;;19.30;30.70;;;;;;4990641;28;21092;-36
2022/04/06 12:52:08;;;;;;;3.90;2.28;;;19.20;30.10;;;;;;4990343;28;20653;-36
2022/04/06 12:54:36;;;;;;;4.78;2.65;;;19.10;30.20;;;;;;4990420;28;20557;-36
2022/04/06 12:57:02;;;;;;;3.97;2.65;;;19.00;30.70;;;;;;4990324;28;20690;-36
2022/04/06 12:59:40;;;;;;;3.45;2.53;;;18.90;29.90;;;;;;4990602;28;20267;-36
2022/04/06 13:02:16;;;;;;;16.65;3.72;;;18.90;31.10;;;;;;4990396;28;20183;-36